Time;durP1;ratioP1;P1;durP2;ratioP2;P2;SDS_P1;SDS_P2;PMS_P1;PMS_P2;Temp;Humidity;BMP_temperature;BMP_pressure;BME280_temperature;BME280_humidity;BME280_pressure;Samples;Min_cycle;Max_cycle;Signal;HPM_P1;HPM_P2
2022/10/25 07:38:47;;;;;;;1999.90;999.90;;;;;;;18.48;79.70;101439.00;5059288;28;20469;-50
2022/10/25 07:41:12;;;;;;;1999.90;999.90;;;;;;;18.51;78.66;101439.75;5048497;28;20045;-51
2022/10/25 07:43:38;;;;;;;1999.90;999.90;;;;;;;18.48;79.03;101439.00;5039206;28;20405;-50
2022/10/25 07:46:04;;;;;;;1999.90;999.90;;;;;;;18.42;79.83;101439.19;5046828;28;20023;-51
2022/10/25 07:48:30;;;;;;;1999.90;999.90;;;;;;;18.40;79.10;101441.06;5040696;28;20116;-49
2022/10/25 07:50:55;;;;;;;1999.90;999.90;;;;;;;18.38;80.01;101448.22;5045014;28;20425;-48
2022/10/25 07:53:21;;;;;;;1999.90;999.90;;;;;;;18.38;80.10;101448.22;5037679;28;20030;-48
2022/10/25 07:55:54;;;;;;;1999.90;999.90;;;;;;;18.38;80.23;101445.56;5046112;28;20057;-48
2022/10/25 07:58:19;;;;;;;1999.90;999.90;;;;;;;18.37;80.47;101446.47;5037598;28;20473;-51
2022/10/25 08:00:45;;;;;;;1999.90;999.90;;;;;;;18.37;80.37;101446.47;5050757;28;20104;-51
2022/10/25 08:03:12;;;;;;;1999.90;999.90;;;;;;;18.35;80.10;101449.19;5040184;28;20042;-52
2022/10/25 08:05:38;;;;;;;1999.90;999.90;;;;;;;18.34;80.17;101448.28;5043923;28;20453;-53
2022/10/25 08:08:04;;;;;;;1999.90;999.90;;;;;;;18.32;80.16;101452.78;5042186;28;20032;-51
2022/10/25 08:10:30;;;;;;;1999.90;999.90;;;;;;;18.32;80.31;101458.09;5042856;28;20035;-51
2022/10/25 08:12:56;;;;;;;1999.90;999.90;;;;;;;18.33;80.16;101457.19;5044100;28;20100;-51
2022/10/25 08:15:21;;;;;;;1999.90;999.90;;;;;;;18.32;80.09;101463.41;5044543;28;20108;-49
2022/10/25 08:17:47;;;;;;;1999.90;999.90;;;;;;;18.31;80.05;101469.63;5042180;28;20056;-49
2022/10/25 08:20:12;;;;;;;1999.90;999.90;;;;;;;18.30;79.75;101469.69;5030030;28;20050;-51
2022/10/25 08:22:38;;;;;;;1999.90;999.90;;;;;;;18.29;79.76;101470.63;5040063;28;20041;-47
2022/10/25 08:25:04;;;;;;;1999.90;999.90;;;;;;;18.29;79.56;101463.53;5041952;28;20384;-51
2022/10/25 08:27:30;;;;;;;1999.90;999.90;;;;;;;18.29;79.74;101466.19;5043560;28;20631;-51
2022/10/25 08:29:55;;;;;;;1999.90;999.90;;;;;;;18.29;79.68;101473.28;5039651;28;20045;-51
2022/10/25 08:32:20;;;;;;;1999.90;999.90;;;;;;;18.28;79.88;101464.44;5046315;28;20117;-49
2022/10/25 08:34:46;;;;;;;1999.90;999.90;;;;;;;18.29;79.88;101462.66;5050949;28;20025;-51
2022/10/25 08:37:13;;;;;;;1999.90;999.90;;;;;;;18.29;79.67;101476.78;5037388;28;20144;-51
2022/10/25 08:39:39;;;;;;;1999.90;999.90;;;;;;;18.27;79.22;101468.00;5043941;28;20407;-50
2022/10/25 08:42:05;;;;;;;1999.90;999.90;;;;;;;18.28;79.04;101475.03;5040979;28;20048;-51
2022/10/25 08:44:42;;;;;;;1999.90;999.90;;;;;;;18.28;79.99;101477.69;5046198;28;20434;-51
2022/10/25 08:47:28;;;;;;;1999.90;999.90;;;;;;;18.30;79.06;101467.91;5035440;28;20417;-50
2022/10/25 08:50:04;;;;;;;1999.90;999.90;;;;;;;18.31;79.26;101471.44;5032436;28;20479;-51
2022/10/25 08:52:53;;;;;;;1999.90;999.90;;;;;;;18.32;79.33;101476.69;5028476;28;20541;-49
2022/10/25 08:55:41;;;;;;;1999.90;999.90;;;;;;;18.34;79.77;101482.78;5026054;28;20049;-50
2022/10/25 08:58:27;;;;;;;1999.90;999.90;;;;;;;18.34;79.54;101485.44;5021000;28;20091;-49
2022/10/25 09:00:53;;;;;;;1999.90;999.90;;;;;;;18.34;79.10;101482.78;5026083;28;20057;-49
2022/10/25 09:03:24;;;;;;;1999.90;999.90;;;;;;;18.37;78.83;101488.94;5032743;28;20091;-50
2022/10/25 09:05:55;;;;;;;1999.90;999.90;;;;;;;18.37;78.67;101489.78;5031508;28;20095;-50
2022/10/25 09:08:46;;;;;;;1999.90;999.90;;;;;;;18.37;79.60;101497.75;5029603;28;20052;-51
2022/10/25 09:11:26;;;;;;;1999.90;999.90;;;;;;;18.37;79.34;101503.03;5028441;28;20021;-51
2022/10/25 09:13:58;;;;;;;1999.90;999.90;;;;;;;18.36;79.43;101498.69;5023816;28;20029;-51
2022/10/25 09:16:43;;;;;;;1999.90;999.90;;;;;;;18.38;79.34;101504.78;5017623;28;20021;-51
2022/10/25 09:19:16;;;;;;;1999.90;999.90;;;;;;;18.37;79.08;101505.69;5018214;28;20045;-51
2022/10/25 09:21:50;;;;;;;1999.90;999.90;;;;;;;18.39;79.24;101514.50;5022309;28;20092;-50
2022/10/25 09:24:26;;;;;;;1999.90;999.90;;;;;;;18.40;79.29;101515.34;5029597;28;20410;-53
2022/10/25 09:27:04;;;;;;;1999.90;999.90;;;;;;;18.39;78.83;101518.91;5026507;28;20128;-52
2022/10/25 09:29:37;;;;;;;1999.90;999.90;;;;;;;18.38;78.79;101519.84;5030602;28;20555;-52
2022/10/25 09:32:12;;;;;;;1999.90;999.90;;;;;;;18.39;78.81;101524.22;5023693;28;20021;-51
2022/10/25 09:34:38;;;;;;;1999.90;999.90;;;;;;;18.40;78.60;101531.25;5026134;28;20720;-51
2022/10/25 09:37:15;;;;;;;1999.90;999.90;;;;;;;18.38;78.76;101523.34;5037224;28;20524;-52
2022/10/25 09:39:46;;;;;;;1999.90;999.90;;;;;;;18.38;78.62;101527.81;5030652;28;20033;-51
2022/10/25 09:42:18;;;;;;;1999.90;999.90;;;;;;;18.39;78.53;101529.53;5017218;28;20025;-52
2022/10/25 09:44:52;;;;;;;1999.90;999.90;;;;;;;18.37;78.59;101526.06;5025918;28;20036;-51
2022/10/25 09:47:20;;;;;;;1999.90;999.90;;;;;;;18.37;78.44;101528.72;5032858;28;20025;-52
2022/10/25 09:50:03;;;;;;;1999.90;999.90;;;;;;;18.35;78.39;101526.13;5030785;28;20060;-52
2022/10/25 09:53:03;;;;;;;1999.90;999.90;;;;;;;18.34;78.52;101517.28;5030276;28;20453;-52
2022/10/25 09:55:38;;;;;;;1999.90;999.90;;;;;;;18.33;78.53;101530.59;5015443;28;20045;-50
2022/10/25 09:58:04;;;;;;;1999.90;999.90;;;;;;;18.34;78.47;101538.50;5020353;28;20032;-51
2022/10/25 10:00:31;;;;;;;1999.90;999.90;;;;;;;18.34;78.77;101527.88;5020606;28;20049;-51
2022/10/25 10:02:58;;;;;;;1999.90;999.90;;;;;;;18.33;78.54;101528.81;5028427;28;20029;-51
2022/10/25 10:05:24;;;;;;;1999.90;999.90;;;;;;;18.32;78.66;101537.69;5023397;28;20030;-52
2022/10/25 10:07:50;;;;;;;1999.90;999.90;;;;;;;18.33;78.64;101547.41;5024135;28;20036;-51
2022/10/25 10:10:23;;;;;;;1999.90;999.90;;;;;;;18.30;78.51;101547.50;5013236;28;20044;-52
2022/10/25 10:12:58;;;;;;;1999.90;999.90;;;;;;;18.30;78.54;101541.31;5029800;28;20025;-51
2022/10/25 10:15:35;;;;;;;1999.90;999.90;;;;;;;18.29;78.57;101551.06;5029614;28;20040;-52
2022/10/25 10:18:21;;;;;;;1999.90;999.90;;;;;;;18.29;78.62;101547.56;5025819;28;20034;-51
2022/10/25 10:20:58;;;;;;;1999.90;999.90;;;;;;;18.30;78.74;101546.63;5035144;28;20143;-50
2022/10/25 10:23:27;;;;;;;1999.90;999.90;;;;;;;18.28;78.68;101546.66;5026719;28;20405;-49
2022/10/25 10:25:53;;;;;;;1999.90;999.90;;;;;;;18.28;78.62;101551.97;5030044;28;20032;-50
2022/10/25 10:28:19;;;;;;;1999.90;999.90;;;;;;;18.26;78.36;101556.47;5029883;28;20030;-51
2022/10/25 10:30:57;;;;;;;1999.90;999.90;;;;;;;18.27;78.71;101547.59;5018977;28;20041;-50
2022/10/25 10:33:31;;;;;;;1999.90;999.90;;;;;;;18.26;78.53;101551.19;5025436;28;20101;-49
2022/10/25 10:36:25;;;;;;;1999.90;999.90;;;;;;;18.28;78.86;101553.78;5030498;28;20052;-51
2022/10/25 10:38:50;;;;;;;1999.90;999.90;;;;;;;18.27;79.03;101562.63;5022515;28;20037;-51
2022/10/25 10:41:22;;;;;;;1999.90;999.90;;;;;;;18.25;79.02;101554.72;5027116;28;20034;-50
2022/10/25 10:43:48;;;;;;;1999.90;999.90;;;;;;;18.27;79.37;101562.63;5015844;28;20404;-51
2022/10/25 10:46:15;;;;;;;1999.90;999.90;;;;;;;18.27;79.04;101567.94;5022633;28;20025;-51
2022/10/25 10:48:43;;;;;;;1999.90;999.90;;;;;;;18.25;79.19;101570.66;5020584;28;20044;-51
2022/10/25 10:51:19;;;;;;;1999.90;999.90;;;;;;;18.26;79.38;101564.44;5021363;28;20024;-51
2022/10/25 10:53:44;;;;;;;1999.90;999.90;;;;;;;18.25;79.40;101569.78;5015196;28;20430;-49
2022/10/25 10:56:19;;;;;;;1999.90;999.90;;;;;;;18.25;79.21;101573.31;5022952;28;20025;-51
2022/10/25 10:58:49;;;;;;;1999.90;999.90;;;;;;;18.27;79.50;101565.28;5022498;28;20558;-46
2022/10/25 11:01:30;;;;;;;1999.90;999.90;;;;;;;18.26;79.46;101572.41;5015544;28;20026;-50
2022/10/25 11:03:57;;;;;;;1999.90;999.90;;;;;;;18.25;79.41;101564.50;5023992;28;20117;-51
2022/10/25 11:06:28;;;;;;;1999.90;999.90;;;;;;;18.25;79.12;101569.78;5019583;28;20426;-51
2022/10/25 11:09:14;;;;;;;1999.90;999.90;;;;;;;18.25;79.28;101570.66;5025217;28;20090;-51
2022/10/25 11:11:40;;;;;;;1999.90;999.90;;;;;;;18.26;79.51;101571.50;5027902;28;20116;-52
2022/10/25 11:14:14;;;;;;;1999.90;999.90;;;;;;;18.24;79.36;101574.22;5022800;28;20346;-50
2022/10/25 11:16:49;;;;;;;1999.90;999.90;;;;;;;18.24;79.42;101571.56;5020030;28;20044;-51
2022/10/25 11:19:20;;;;;;;1999.90;999.90;;;;;;;18.23;79.41;101564.53;5018868;28;20473;-51
2022/10/25 11:22:01;;;;;;;1999.90;999.90;;;;;;;18.24;79.42;101563.59;5022799;28;20029;-50
2022/10/25 11:25:04;;;;;;;1999.90;999.90;;;;;;;18.24;79.48;101568.91;5020485;28;20025;-51
2022/10/25 11:28:08;;;;;;;1999.90;999.90;;;;;;;18.24;79.47;101568.91;5023245;28;20053;-50
2022/10/25 11:31:15;;;;;;;1999.90;999.90;;;;;;;18.23;79.61;101575.16;5019245;28;20098;-51
2022/10/25 11:33:55;;;;;;;1999.90;999.90;;;;;;;18.23;79.23;101567.19;5030556;28;20102;-50
2022/10/25 11:36:30;;;;;;;1999.90;999.90;;;;;;;18.21;79.19;101571.66;5028571;28;20026;-49
2022/10/25 11:39:14;;;;;;;1999.90;999.90;;;;;;;18.21;79.25;101578.75;5027285;28;20026;-50
2022/10/25 11:41:50;;;;;;;1999.90;999.90;;;;;;;18.19;79.25;101570.84;5027392;28;20102;-51
2022/10/25 11:44:44;;;;;;;1999.90;999.90;;;;;;;18.21;79.25;101570.81;5032633;28;20359;-50
2022/10/25 11:47:48;;;;;;;1999.90;999.90;;;;;;;18.21;79.47;101557.53;5030496;28;20033;-50
2022/10/25 11:50:51;;;;;;;1999.90;999.90;;;;;;;18.20;79.56;101566.41;5013159;28;20065;-49
2022/10/25 11:53:54;;;;;;;1999.90;999.90;;;;;;;18.18;79.39;101554.06;5023129;28;20059;-50
2022/10/25 11:56:27;;;;;;;1999.90;999.90;;;;;;;18.16;79.16;101549.75;5034223;28;20120;-50
2022/10/25 11:59:14;;;;;;;1999.90;999.90;;;;;;;18.18;79.33;101553.19;5028825;28;20029;-51
2022/10/25 12:02:24;;;;;;;1999.90;999.90;;;;;;;18.17;79.14;101560.31;5019605;28;20192;-48
2022/10/25 12:05:19;;;;;;;1999.90;999.90;;;;;;;18.16;79.35;101552.41;5025494;28;20042;-52
2022/10/25 12:08:24;;;;;;;1999.90;999.90;;;;;;;18.15;79.22;101553.31;5020562;28;20040;-50
2022/10/25 12:10:59;;;;;;;1999.90;999.90;;;;;;;18.15;79.23;101559.47;5027614;28;20045;-49
2022/10/25 12:13:53;;;;;;;1999.90;999.90;;;;;;;18.15;79.15;101558.59;5018375;28;20378;-50
2022/10/25 12:16:23;;;;;;;1999.90;999.90;;;;;;;18.13;79.65;101555.13;5030428;28;20072;-49
2022/10/25 12:19:21;;;;;;;1999.90;999.90;;;;;;;18.15;79.41;101550.66;5024620;28;20108;-51
2022/10/25 12:22:00;;;;;;;1999.90;999.90;;;;;;;18.14;79.17;101559.50;5021990;28;20449;-51
2022/10/25 12:24:36;;;;;;;1999.90;999.90;;;;;;;18.14;79.33;101559.50;5013470;28;20116;-48
2022/10/25 12:27:03;;;;;;;1999.90;999.90;;;;;;;18.15;79.61;101558.59;5026402;28;20115;-50
2022/10/25 12:29:37;;;;;;;1999.90;999.90;;;;;;;18.13;79.42;101560.41;5022383;28;20493;-50
2022/10/25 12:32:14;;;;;;;1999.90;999.90;;;;;;;18.14;79.45;101568.31;5022790;28;20370;-50
2022/10/25 12:34:42;;;;;;;1999.90;999.90;;;;;;;18.14;79.57;101559.50;5023693;28;20028;-48
2022/10/25 12:37:27;;;;;;;1999.90;999.90;;;;;;;18.14;79.41;101562.16;5036587;28;20042;-50
2022/10/25 12:39:53;;;;;;;1999.90;999.90;;;;;;;18.13;79.36;101561.31;5032026;28;20382;-49
2022/10/25 12:42:23;;;;;;;1999.90;999.90;;;;;;;18.13;79.31;101563.06;5025228;28;20033;-50
2022/10/25 12:45:26;;;;;;;1999.90;999.90;;;;;;;18.15;79.30;101564.78;5025688;28;20033;-50
2022/10/25 12:48:12;;;;;;;1999.90;999.90;;;;;;;18.14;79.30;101564.81;5032093;28;20045;-52
2022/10/25 12:50:53;;;;;;;1999.90;999.90;;;;;;;18.16;79.00;101565.66;5028902;28;20040;-47
2022/10/25 12:53:31;;;;;;;1999.90;999.90;;;;;;;18.17;79.42;101562.94;5026815;28;20038;-50
2022/10/25 12:56:12;;;;;;;1999.90;999.90;;;;;;;18.17;79.53;101548.81;5030903;28;20400;-49
2022/10/25 12:59:01;;;;;;;1999.90;999.90;;;;;;;18.17;79.32;101551.47;5032065;28;20060;-50
2022/10/25 13:01:48;;;;;;;1999.90;999.90;;;;;;;18.21;79.46;101555.75;5030330;28;20029;-51
2022/10/25 13:04:27;;;;;;;1999.90;999.90;;;;;;;18.18;79.48;101558.50;5026792;28;20203;-49
2022/10/25 13:06:53;;;;;;;1999.90;999.90;;;;;;;18.18;79.36;101558.50;5028215;28;20029;-51
2022/10/25 13:09:21;;;;;;;1999.90;999.90;;;;;;;18.20;79.58;101555.81;5034655;28;20502;-50
2022/10/25 13:12:07;;;;;;;1999.90;999.90;;;;;;;18.20;79.72;101548.69;5025949;28;20030;-49
2022/10/25 13:14:42;;;;;;;1999.90;999.90;;;;;;;18.20;79.78;101540.75;5045015;28;20131;-51
2022/10/25 13:17:19;;;;;;;1999.90;999.90;;;;;;;18.18;79.36;101545.25;5031939;28;20116;-50
2022/10/25 13:19:45;;;;;;;1999.90;999.90;;;;;;;18.17;79.71;101554.09;5026493;28;20044;-48
2022/10/25 13:22:30;;;;;;;1999.90;999.90;;;;;;;18.17;79.54;101546.16;5036211;28;20060;-48
2022/10/25 13:25:00;;;;;;;1999.90;999.90;;;;;;;18.21;79.35;101558.41;5030672;28;20034;-46
2022/10/25 13:27:31;;;;;;;1999.90;999.90;;;;;;;18.25;78.49;101545.91;5025560;28;20433;-41
2022/10/25 13:30:05;;;;;;;1999.90;999.90;;;;;;;18.27;78.53;101544.06;5024813;28;20028;-46
2022/10/25 13:32:41;;;;;;;1999.90;999.90;;;;;;;18.29;78.40;101545.75;5029112;28;20032;-43
2022/10/25 13:35:16;;;;;;;1999.90;999.90;;;;;;;18.29;78.92;101542.25;5019465;28;20117;-44
2022/10/25 13:37:42;;;;;;;1999.90;999.90;;;;;;;18.33;78.64;101541.22;5028493;28;20422;-46
2022/10/25 13:40:27;;;;;;;1999.90;999.90;;;;;;;18.34;78.89;101546.47;5029238;28;20087;-45
2022/10/25 13:43:04;;;;;;;1999.90;999.90;;;;;;;18.34;78.84;101548.25;5032722;28;20044;-45
2022/10/25 13:45:52;;;;;;;1999.90;999.90;;;;;;;18.33;78.53;101542.09;5031341;28;20087;-45
2022/10/25 13:48:34;;;;;;;1999.90;999.90;;;;;;;18.35;78.57;101552.66;5022632;28;20035;-45
2022/10/25 13:51:08;;;;;;;1999.90;999.90;;;;;;;18.34;78.91;101546.47;5021428;28;20053;-44
2022/10/25 13:53:39;;;;;;;1999.90;999.90;;;;;;;18.35;78.52;101542.91;5030243;28;20079;-42
2022/10/25 13:56:11;;;;;;;1999.90;999.90;;;;;;;18.35;78.51;101545.56;5031986;28;20061;-46
2022/10/25 13:58:40;;;;;;;1999.90;999.90;;;;;;;18.35;78.44;101545.56;5032541;28;20037;-45
2022/10/25 14:01:27;;;;;;;1999.90;999.90;;;;;;;18.38;78.43;101543.72;5032163;28;20033;-43
2022/10/25 14:04:31;;;;;;;1999.90;999.90;;;;;;;18.37;78.70;101537.53;5023296;28;20036;-43
2022/10/25 14:07:35;;;;;;;1999.90;999.90;;;;;;;18.38;79.38;101536.63;5032447;28;20495;-40
2022/10/25 14:10:37;;;;;;;1999.90;999.90;;;;;;;18.40;78.83;101539.22;5014650;28;20037;-42
2022/10/25 14:13:12;;;;;;;1999.90;999.90;;;;;;;18.40;78.55;101531.25;5028249;28;20037;-44
2022/10/25 14:15:48;;;;;;;1999.90;999.90;;;;;;;18.41;78.67;101530.34;5024434;28;20033;-42
2022/10/25 14:18:19;;;;;;;1999.90;999.90;;;;;;;18.40;78.61;101528.63;5028722;28;20071;-44
2022/10/25 14:21:08;;;;;;;1999.90;999.90;;;;;;;18.41;78.61;101533.00;5030648;28;20410;-44
2022/10/25 14:23:34;;;;;;;1999.90;999.90;;;;;;;18.42;78.52;101524.09;5030210;28;20135;-45
2022/10/25 14:26:01;;;;;;;1999.90;999.90;;;;;;;18.41;78.73;101522.41;5031930;28;20112;-45
2022/10/25 14:28:29;;;;;;;1999.90;999.90;;;;;;;18.43;79.00;101531.16;5028921;28;20124;-45
2022/10/25 14:31:01;;;;;;;1999.90;999.90;;;;;;;18.44;78.50;101524.94;5029586;28;20260;-44
2022/10/25 14:33:31;;;;;;;1999.90;999.90;;;;;;;18.44;78.81;101527.59;5028546;28;20347;-44
2022/10/25 14:36:30;;;;;;;1999.90;999.90;;;;;;;18.46;78.78;101528.41;5026622;28;20035;-43
2022/10/25 14:39:01;;;;;;;1999.90;999.90;;;;;;;18.48;79.29;101523.94;5026405;28;20486;-44
2022/10/25 14:41:33;;;;;;;1999.90;999.90;;;;;;;18.48;79.47;101524.78;5016536;28;20432;-42
2022/10/25 14:43:59;;;;;;;1999.90;999.90;;;;;;;18.51;79.26;101523.81;5026714;28;20068;-43
2022/10/25 14:46:32;;;;;;;1999.90;999.90;;;;;;;18.49;79.37;101518.56;5028113;28;20039;-40
2022/10/25 14:49:00;;;;;;;1999.90;999.90;;;;;;;18.49;79.15;101513.25;5028452;28;20053;-42
2022/10/25 14:51:41;;;;;;;1999.90;999.90;;;;;;;18.52;79.24;101514.94;5020499;28;20482;-44
2022/10/25 14:54:09;;;;;;;1999.90;999.90;;;;;;;18.51;79.44;101506.09;5021573;28;20200;-43
2022/10/25 14:56:47;;;;;;;1999.90;999.90;;;;;;;18.51;79.86;101507.88;5022865;28;20037;-42
2022/10/25 14:59:19;;;;;;;1999.90;999.90;;;;;;;18.51;79.45;101506.09;5023276;28;20056;-41
2022/10/25 15:02:19;;;;;;;1999.90;999.90;;;;;;;18.52;79.40;101509.63;5029559;28;20362;-44
2022/10/25 15:04:48;;;;;;;1999.90;999.90;;;;;;;18.52;79.69;101506.97;5027238;28;20478;-44
2022/10/25 15:07:24;;;;;;;1999.90;999.90;;;;;;;18.56;79.60;101505.97;5024567;28;20013;-43
2022/10/25 15:09:53;;;;;;;1999.90;999.90;;;;;;;18.55;79.41;101501.56;5019750;28;20034;-44
2022/10/25 15:12:33;;;;;;;1999.90;999.90;;;;;;;18.56;79.67;101498.00;5025159;28;20033;-44
2022/10/25 15:15:30;;;;;;;1999.90;999.90;;;;;;;18.57;79.54;101496.19;5022795;28;20490;-44
2022/10/25 15:17:57;;;;;;;1999.90;999.90;;;;;;;18.58;80.25;101493.50;5025235;28;20060;-43
2022/10/25 15:20:28;;;;;;;1999.90;999.90;;;;;;;18.58;79.83;101489.97;5024644;28;20045;-42
2022/10/25 15:23:24;;;;;;;1999.90;999.90;;;;;;;18.59;80.26;101489.03;5024817;28;20128;-42
2022/10/25 15:25:54;;;;;;;1999.90;999.90;;;;;;;18.59;80.34;101495.22;5014426;28;20499;-41
2022/10/25 15:28:21;;;;;;;1999.90;999.90;;;;;;;18.59;79.96;101494.34;5019644;28;20037;-43
2022/10/25 15:30:47;;;;;;;1999.90;999.90;;;;;;;18.61;80.79;101500.47;5028306;28;20382;-45
2022/10/25 15:33:18;;;;;;;1999.90;999.90;;;;;;;18.57;80.06;101499.72;5025452;28;20086;-43
2022/10/25 15:35:51;;;;;;;1999.90;999.90;;;;;;;18.60;80.61;101499.59;5012549;28;20080;-44
2022/10/25 15:38:17;;;;;;;1999.90;999.90;;;;;;;18.59;80.66;101500.53;5025349;28;20046;-43
2022/10/25 15:40:44;;;;;;;1999.90;999.90;;;;;;;18.58;80.35;101493.50;5020739;28;20087;-47
2022/10/25 15:43:09;;;;;;;1999.90;999.90;;;;;;;18.58;79.91;101497.94;5024999;28;20057;-43
2022/10/25 15:45:36;;;;;;;1999.90;999.90;;;;;;;18.59;80.06;101494.34;5018298;28;20505;-42
2022/10/25 15:48:15;;;;;;;1999.90;999.90;;;;;;;18.59;80.04;101499.66;5021705;28;20030;-44
2022/10/25 15:50:54;;;;;;;1999.90;999.90;;;;;;;18.58;80.11;101487.31;5020473;28;20111;-43
2022/10/25 15:53:21;;;;;;;1999.90;999.90;;;;;;;18.58;80.07;101497.94;5028241;28;20379;-46
2022/10/25 15:55:48;;;;;;;1999.90;999.90;;;;;;;18.59;80.28;101489.91;5018864;28;20362;-44
2022/10/25 15:58:13;;;;;;;1999.90;999.90;;;;;;;18.59;80.38;101484.63;5021574;28;20171;-45
2022/10/25 16:00:39;;;;;;;1999.90;999.90;;;;;;;18.62;80.99;101483.63;5027262;28;20142;-46
2022/10/25 16:03:07;;;;;;;1999.90;999.90;;;;;;;18.61;80.01;101489.88;5030885;28;20025;-44
2022/10/25 16:05:37;;;;;;;1999.90;999.90;;;;;;;18.60;80.48;101483.66;5021753;28;20041;-45
2022/10/25 16:08:07;;;;;;;1999.90;999.90;;;;;;;18.60;81.18;101485.47;5020316;28;20029;-41
2022/10/25 16:13:08;;;;;;;1999.90;999.90;;;;;;;18.65;81.72;101473.78;5098178;27;20858;-53
2022/10/25 16:15:34;;;;;;;1999.90;999.90;;;;;;;18.61;82.05;101472.13;5091744;28;20157;-52
2022/10/25 16:17:59;;;;;;;1999.90;999.90;;;;;;;18.60;82.01;101474.84;5089638;28;20039;-53
2022/10/25 16:20:29;;;;;;;1999.90;999.90;;;;;;;18.57;81.76;101480.28;5093855;28;20051;-53
2022/10/25 16:22:57;;;;;;;1999.90;999.90;;;;;;;18.55;82.59;101488.28;5097377;28;20036;-53
2022/10/25 16:25:24;;;;;;;1999.90;999.90;;;;;;;18.55;82.18;101490.06;5087588;28;20024;-52
2022/10/25 16:27:51;;;;;;;1999.90;999.90;;;;;;;18.54;82.58;101494.50;5098943;28;20066;-51
2022/10/25 16:30:22;;;;;;;1999.90;999.90;;;;;;;18.50;82.03;101487.56;5088849;28;20055;-53
2022/10/25 16:32:48;;;;;;;1999.90;999.90;;;;;;;18.47;82.37;101488.53;5093383;28;20082;-52
2022/10/25 16:35:14;;;;;;;1999.90;999.90;;;;;;;18.47;82.96;101493.00;5090043;28;20036;-53
2022/10/25 16:37:40;;;;;;;1999.90;999.90;;;;;;;18.47;82.64;101499.16;5088619;28;20100;-52
2022/10/25 16:40:16;;;;;;;1999.90;999.90;;;;;;;18.44;81.70;101496.59;5096668;28;20034;-52
2022/10/25 16:42:42;;;;;;;1999.90;999.90;;;;;;;18.44;81.72;101495.75;5089966;28;20036;-53
2022/10/25 16:45:21;;;;;;;1999.90;999.90;;;;;;;18.43;81.95;101500.19;5092557;28;20032;-52
2022/10/25 16:47:47;;;;;;;1999.90;999.90;;;;;;;18.42;82.33;101505.53;5086540;28;20371;-52
2022/10/25 16:50:13;;;;;;;1999.90;999.90;;;;;;;18.42;82.19;101502.88;5088247;28;20123;-52
2022/10/25 16:52:39;;;;;;;1999.90;999.90;;;;;;;18.42;82.76;101502.88;5095186;28;20043;-52
2022/10/25 16:55:06;;;;;;;1999.90;999.90;;;;;;;18.41;83.04;101507.34;5093625;28;20036;-53
2022/10/25 16:57:32;;;;;;;1999.90;999.90;;;;;;;18.43;83.13;101507.28;5091482;28;20039;-52
2022/10/25 16:59:57;;;;;;;1999.90;999.90;;;;;;;18.41;83.12;101491.41;5092009;28;20382;-53
2022/10/25 17:02:24;;;;;;;1999.90;999.90;;;;;;;18.40;83.35;101488.81;5092701;28;20035;-53
2022/10/25 17:04:50;;;;;;;1999.90;999.90;;;;;;;18.39;83.70;101492.38;5091374;28;20436;-52
2022/10/25 17:07:16;;;;;;;1999.90;999.90;;;;;;;18.40;83.45;101487.00;5094112;28;20032;-52
2022/10/25 17:09:42;;;;;;;1999.90;999.90;;;;;;;18.38;83.64;101486.22;5090629;28;20472;-53
2022/10/25 17:12:09;;;;;;;1999.90;999.90;;;;;;;18.39;82.51;101477.34;5089458;28;20532;-52
2022/10/25 17:14:35;;;;;;;1999.90;999.90;;;;;;;18.43;82.74;101478.09;5095510;28;20036;-50
2022/10/25 17:17:00;;;;;;;1999.90;999.90;;;;;;;18.50;82.81;101476.94;5089368;28;20036;-49
2022/10/25 17:19:25;;;;;;;1999.90;999.90;;;;;;;18.57;82.59;101474.97;5092542;28;20059;-52
2022/10/25 17:21:51;;;;;;;1999.90;999.90;;;;;;;18.64;82.71;101479.13;5090132;28;20036;-52
2022/10/25 17:24:17;;;;;;;1999.90;999.90;;;;;;;18.72;82.49;101476.19;5073220;28;20040;-52
2022/10/25 17:26:43;;;;;;;1999.90;999.90;;;;;;;18.76;82.55;101475.16;5079388;28;20034;-50
2022/10/25 17:29:08;;;;;;;1999.90;999.90;;;;;;;18.82;82.33;101475.81;5076492;28;20097;-54
2022/10/25 17:31:36;;;;;;;1999.90;999.90;;;;;;;18.89;82.09;101468.50;5082875;28;20075;-52
2022/10/25 17:34:02;;;;;;;1999.90;999.90;;;;;;;18.96;82.01;101471.81;5074709;28;20498;-51
2022/10/25 17:36:30;;;;;;;1999.90;999.90;;;;;;;19.00;81.88;101478.75;5080378;28;20035;-52
2022/10/25 17:38:56;;;;;;;1999.90;999.90;;;;;;;19.05;81.73;101484.78;5075628;28;20047;-53
2022/10/25 17:41:21;;;;;;;1999.90;999.90;;;;;;;19.13;81.02;101479.16;5073460;28;20028;-52
2022/10/25 17:43:47;;;;;;;1999.90;999.90;;;;;;;19.23;81.01;101477.88;5074638;28;20107;-52
2022/10/25 17:46:22;;;;;;;1999.90;999.90;;;;;;;19.29;81.01;101474.13;5077742;28;20038;-55
2022/10/25 17:48:48;;;;;;;1999.90;999.90;;;;;;;19.37;80.56;101472.06;5077222;28;20114;-52
2022/10/25 17:51:14;;;;;;;1999.90;999.90;;;;;;;19.44;80.43;101468.25;5076823;28;20547;-54
2022/10/25 17:53:40;;;;;;;1999.90;999.90;;;;;;;19.53;80.08;101477.63;5077773;28;20155;-52
2022/10/25 17:56:11;;;;;;;1999.90;999.90;;;;;;;19.58;80.29;101478.31;5079894;28;20104;-51
2022/10/25 17:58:36;;;;;;;1999.90;999.90;;;;;;;19.65;79.95;101482.47;5071235;28;20033;-48
2022/10/25 18:01:04;;;;;;;1999.90;999.90;;;;;;;19.72;79.40;101481.31;5074213;28;20047;-49
2022/10/25 18:03:30;;;;;;;1999.90;999.90;;;;;;;19.78;79.51;101481.97;5071835;28;20028;-50
2022/10/25 18:06:02;;;;;;;1999.90;999.90;;;;;;;19.83;79.28;101480.03;5071477;28;20497;-50
2022/10/25 18:08:27;;;;;;;1999.90;999.90;;;;;;;19.88;79.04;101481.59;5072251;28;20365;-49
2022/10/25 18:10:52;;;;;;;1999.90;999.90;;;;;;;19.95;78.44;101482.19;5070542;28;20056;-51
2022/10/25 18:13:20;;;;;;;1999.90;999.90;;;;;;;19.99;78.75;101478.47;5074978;28;20063;-51
2022/10/25 18:15:48;;;;;;;1999.90;999.90;;;;;;;20.10;78.25;101487.81;5076561;28;20039;-50
2022/10/25 18:18:14;;;;;;;1999.90;999.90;;;;;;;20.21;77.40;101475.81;5072631;28;20033;-53
2022/10/25 18:20:40;;;;;;;1999.90;999.90;;;;;;;20.29;77.37;101480.78;5069632;28;20048;-51
2022/10/25 18:23:12;;;;;;;1999.90;999.90;;;;;;;20.36;77.26;101479.59;5068402;28;20163;-50
